createdAt,value
2022-11-17T00:01:06.737Z,98894.81
2022-11-17T00:03:34.455Z,98897.09
2022-11-17T00:06:06.298Z,98895.94
2022-11-17T00:08:33.777Z,98894.53
2022-11-17T00:11:02.270Z,98890.19
2022-11-17T00:13:33.724Z,98880.59
2022-11-17T00:16:01.301Z,98874.38
2022-11-17T00:18:31.605Z,98889.78
2022-11-17T00:20:58.887Z,98881.69
2022-11-17T00:23:27.366Z,98880.59
2022-11-17T00:25:57.932Z,98876.94
2022-11-17T00:28:27.762Z,98880.91
2022-11-17T00:30:54.904Z,98875.66
2022-11-17T00:33:24.389Z,98881.50
2022-11-17T00:35:55.283Z,98872.09
2022-11-17T00:38:22.443Z,98873.69
2022-11-17T00:40:52.314Z,98871.00
2022-11-17T00:43:19.452Z,98866.06
2022-11-17T00:45:47.195Z,98871.59
2022-11-17T00:48:17.466Z,98863.28
2022-11-17T00:50:44.696Z,98866.25
2022-11-17T00:53:14.032Z,98859.53
2022-11-17T00:55:45.015Z,98854.38
2022-11-17T00:58:14.997Z,98850.63
2022-11-17T01:00:42.398Z,98855.91
2022-11-17T01:03:12.821Z,98844.84
2022-11-17T01:05:46.150Z,98844.22
2022-11-17T01:08:15.691Z,98845.69
2022-11-17T01:10:45.818Z,98840.84
2022-11-17T01:13:17.779Z,98841.66
2022-11-17T01:15:48.297Z,98834.28
2022-11-17T01:18:16.334Z,98829.91
2022-11-17T01:20:47.705Z,98834.94
2022-11-17T01:23:23.249Z,98845.81
2022-11-17T01:25:53.757Z,98842.44
2022-11-17T01:28:27.079Z,98821.91
2022-11-17T01:31:10.122Z,98821.19
2022-11-17T01:33:43.397Z,98815.16
2022-11-17T01:36:18.988Z,98819.81
2022-11-17T01:38:46.873Z,98815.50
2022-11-17T01:41:25.043Z,98805.78
2022-11-17T01:43:57.009Z,98801.47
2022-11-17T01:46:42.078Z,98794.31
2022-11-17T01:49:29.041Z,98788.41
2022-11-17T01:52:14.262Z,98794.22
2022-11-17T01:54:47.331Z,98789.38
2022-11-17T01:57:50.794Z,98771.31
2022-11-17T02:00:25.190Z,98772.91
2022-11-17T02:02:59.711Z,98773.00
2022-11-17T02:05:57.095Z,98775.75
2022-11-17T02:08:29.682Z,98779.22
2022-11-17T02:11:07.305Z,98774.56
2022-11-17T02:13:38.451Z,98757.59
2022-11-17T02:16:11.806Z,98758.38
2022-11-17T02:18:40.388Z,98750.28
2022-11-17T02:21:36.451Z,98742.16
2022-11-17T02:24:25.279Z,98740.28
2022-11-17T02:27:13.763Z,98749.81
2022-11-17T02:29:53.309Z,98745.41
2022-11-17T02:32:46.416Z,98738.66
2022-11-17T02:35:49.358Z,98726.38
2022-11-17T02:38:49.825Z,98724.50
2022-11-17T02:41:24.374Z,98720.16
2022-11-17T02:44:13.424Z,98710.34
2022-11-17T02:46:49.606Z,98709.69
2022-11-17T02:49:24.549Z,98712.44
2022-11-17T02:51:55.459Z,98705.06
2022-11-17T02:54:26.663Z,98695.59
2022-11-17T02:56:59.585Z,98678.81
2022-11-17T02:59:40.338Z,98685.25
2022-11-17T03:02:48.659Z,98706.41
2022-11-17T03:05:26.572Z,98703.16
2022-11-17T03:08:02.180Z,98707.22
2022-11-17T03:10:58.389Z,98699.91
2022-11-17T03:14:10.489Z,98707.69
2022-11-17T03:16:53.704Z,98705.44
2022-11-17T03:19:41.527Z,98706.25
2022-11-17T03:22:32.181Z,98698.72
2022-11-17T03:25:04.348Z,98707.00
2022-11-17T03:27:42.412Z,98701.47
2022-11-17T03:30:11.410Z,98707.69
2022-11-17T03:32:47.635Z,98706.81
2022-11-17T03:35:23.409Z,98712.75
2022-11-17T03:37:59.462Z,98700.69
2022-11-17T03:40:29.541Z,98702.94
2022-11-17T03:43:01.576Z,98701.06
2022-11-17T03:45:36.938Z,98704.66
2022-11-17T03:48:16.551Z,98699.31
2022-11-17T03:50:47.432Z,98693.56
2022-11-17T03:53:14.762Z,98693.97
2022-11-17T03:55:45.531Z,98695.19
2022-11-17T03:58:17.202Z,98681.47
2022-11-17T04:00:46.571Z,98674.88
2022-11-17T04:03:15.080Z,98679.13
2022-11-17T04:05:42.304Z,98677.44
2022-11-17T04:08:12.540Z,98688.59
2022-11-17T04:10:39.821Z,98687.94
2022-11-17T04:13:08.645Z,98682.09
2022-11-17T04:15:35.805Z,98679.72
2022-11-17T04:18:04.353Z,98677.25
2022-11-17T04:20:32.456Z,98674.53
2022-11-17T04:22:59.742Z,98668.59
2022-11-17T04:25:27.059Z,98677.94
2022-11-17T04:27:54.299Z,98682.31
2022-11-17T04:30:21.591Z,98676.94
2022-11-17T04:32:48.851Z,98675.97
2022-11-17T04:35:16.146Z,98677.78
2022-11-17T04:37:43.411Z,98668.59
2022-11-17T04:40:11.142Z,98668.09
2022-11-17T04:42:38.424Z,98664.53
2022-11-17T04:45:06.575Z,98653.94
2022-11-17T04:47:33.841Z,98641.16
2022-11-17T04:50:01.190Z,98631.91
2022-11-17T04:52:31.821Z,98626.94
2022-11-17T04:55:02.446Z,98629.88
2022-11-17T04:57:29.592Z,98644.56
2022-11-17T04:59:56.702Z,98642.28
2022-11-17T05:02:24.258Z,98638.97
2022-11-17T05:04:54.214Z,98637.72
2022-11-17T05:07:26.695Z,98632.44
2022-11-17T05:09:53.801Z,98630.31
2022-11-17T05:12:23.974Z,98623.94
2022-11-17T05:14:51.693Z,98624.66
2022-11-17T05:17:19.288Z,98627.16
2022-11-17T05:19:48.191Z,98627.09
2022-11-17T05:22:18.670Z,98626.28
2022-11-17T05:24:46.370Z,98622.25
2022-11-17T05:27:13.486Z,98623.44
2022-11-17T05:29:40.784Z,98618.84
2022-11-17T05:32:08.014Z,98626.91
2022-11-17T05:34:35.139Z,98631.94
2022-11-17T05:37:05.351Z,98631.94
2022-11-17T05:39:38.532Z,98625.78
2022-11-17T05:42:06.917Z,98627.41
2022-11-17T05:44:34.172Z,98637.16
2022-11-17T05:47:01.839Z,98639.72
2022-11-17T05:49:29.105Z,98632.66
2022-11-17T05:51:59.698Z,98651.25
2022-11-17T05:54:26.816Z,98659.16
2022-11-17T05:57:03.499Z,98667.78
2022-11-17T05:59:45.826Z,98665.41
2022-11-17T06:02:20.865Z,98676.28
2022-11-17T06:04:49.975Z,98681.69
2022-11-17T06:07:24.984Z,98686.56
2022-11-17T06:10:04.539Z,98695.53
2022-11-17T06:12:31.804Z,98692.22
2022-11-17T06:14:59.044Z,98703.53
2022-11-17T06:17:34.497Z,98719.41
2022-11-17T06:20:07.551Z,98730.88
2022-11-17T06:22:35.704Z,98729.00
2022-11-17T06:25:05.485Z,98734.84
2022-11-17T06:27:34.244Z,98748.59
2022-11-17T06:30:03.910Z,98754.00
2022-11-17T06:32:34.962Z,98758.44
2022-11-17T06:35:04.140Z,98766.09
2022-11-17T06:37:31.598Z,98775.00
2022-11-17T06:39:59.064Z,98774.88
2022-11-17T06:42:26.153Z,98766.13
2022-11-17T06:44:53.312Z,98758.41
2022-11-17T06:47:21.001Z,98758.91
2022-11-17T06:49:48.378Z,98766.81
2022-11-17T06:52:15.558Z,98753.16
2022-11-17T06:54:45.983Z,98761.19
2022-11-17T06:57:13.251Z,98763.31
2022-11-17T06:59:40.401Z,98753.22
2022-11-17T07:02:07.886Z,98755.69
2022-11-17T07:04:35.361Z,98743.72
2022-11-17T07:07:02.697Z,98736.25
2022-11-17T07:09:30.067Z,98739.50
2022-11-17T07:11:57.841Z,98734.88
2022-11-17T07:14:25.123Z,98736.78
2022-11-17T07:16:52.335Z,98728.44
2022-11-17T07:19:19.569Z,98736.13
2022-11-17T07:21:46.753Z,98740.59
2022-11-17T07:24:13.952Z,98732.28
2022-11-17T07:26:41.203Z,98736.84
2022-11-17T07:29:11.304Z,98739.59
2022-11-17T07:31:38.882Z,98739.50
2022-11-17T07:34:06.055Z,98736.81
2022-11-17T07:36:33.525Z,98734.94
2022-11-17T07:39:00.752Z,98743.56
2022-11-17T07:41:28.076Z,98743.91
2022-11-17T07:43:58.020Z,98750.59
2022-11-17T07:46:25.535Z,98750.44
2022-11-17T07:48:56.349Z,98742.06
2022-11-17T07:51:23.538Z,98751.09
2022-11-17T07:53:54.076Z,98737.13
2022-11-17T07:56:21.333Z,98736.53
2022-11-17T07:58:57.354Z,98742.72
2022-11-17T08:01:30.963Z,98739.25
2022-11-17T08:04:00.759Z,98722.81
2022-11-17T08:06:31.249Z,98735.09
2022-11-17T08:08:59.201Z,98752.69
2022-11-17T08:11:26.467Z,98759.41
2022-11-17T08:13:59.229Z,98747.34
2022-11-17T08:16:26.536Z,98750.47
2022-11-17T08:18:54.441Z,98748.69
2022-11-17T08:21:21.718Z,98745.56
2022-11-17T08:23:53.091Z,98754.41
2022-11-17T08:26:24.025Z,98758.13
2022-11-17T08:28:56.855Z,98756.56
2022-11-17T08:31:28.711Z,98757.88
2022-11-17T08:33:56.386Z,98763.47
2022-11-17T08:36:23.655Z,98750.44
2022-11-17T08:38:53.753Z,98747.38
2022-11-17T08:41:23.917Z,98741.03
2022-11-17T08:43:53.937Z,98744.91
2022-11-17T08:46:21.667Z,98746.44
2022-11-17T08:48:56.877Z,98749.69
2022-11-17T08:51:28.527Z,98757.69
2022-11-17T08:53:56.779Z,98755.81
2022-11-17T08:56:26.718Z,98762.25
2022-11-17T08:58:54.068Z,98762.69
2022-11-17T09:01:21.345Z,98763.50
2022-11-17T09:03:51.507Z,98774.72
2022-11-17T09:06:19.204Z,98769.97
2022-11-17T09:08:49.568Z,98767.50
2022-11-17T09:11:17.101Z,98774.94
2022-11-17T09:13:52.947Z,98767.44
2022-11-17T09:16:20.166Z,98747.31
2022-11-17T09:18:50.356Z,98746.38
2022-11-17T09:21:20.675Z,98747.19
2022-11-17T09:23:57.271Z,98745.47
2022-11-17T09:26:33.902Z,98743.31
2022-11-17T09:29:02.954Z,98749.28
2022-11-17T09:31:30.606Z,98743.28
2022-11-17T09:34:00.818Z,98740.50
2022-11-17T09:36:37.757Z,98734.00
2022-11-17T09:39:08.263Z,98741.03
2022-11-17T09:41:48.791Z,98748.25
2022-11-17T09:44:40.054Z,98751.06
2022-11-17T09:47:19.426Z,98750.28
2022-11-17T09:50:08.230Z,98738.56
2022-11-17T09:52:47.646Z,98747.47
2022-11-17T09:55:27.260Z,98745.06
2022-11-17T09:58:06.503Z,98750.34
2022-11-17T10:00:38.648Z,98749.41
2022-11-17T10:03:20.012Z,98748.44
2022-11-17T10:05:48.676Z,98752.53
2022-11-17T10:08:20.431Z,98751.97
2022-11-17T10:10:54.258Z,98755.91
2022-11-17T10:13:33.713Z,98757.63
2022-11-17T10:16:13.996Z,98757.38
2022-11-17T10:18:46.489Z,98758.34
2022-11-17T10:21:16.681Z,98754.13
2022-11-17T10:23:47.270Z,98753.88
2022-11-17T10:26:17.839Z,98764.34
2022-11-17T10:28:45.963Z,98767.41
2022-11-17T10:31:17.212Z,98769.59
2022-11-17T10:33:49.246Z,98766.94
2022-11-17T10:36:20.926Z,98771.16
2022-11-17T10:38:56.099Z,98761.13
2022-11-17T10:41:36.911Z,98769.88
2022-11-17T10:44:15.245Z,98763.09
2022-11-17T10:47:03.184Z,98757.50
2022-11-17T10:49:35.131Z,98750.44
2022-11-17T10:52:14.270Z,98761.47
2022-11-17T10:54:46.686Z,98760.47
2022-11-17T10:57:22.683Z,98755.09
2022-11-17T10:59:56.199Z,98766.94
2022-11-17T11:02:27.347Z,98755.81
2022-11-17T11:05:18.336Z,98756.84
2022-11-17T11:07:45.803Z,98752.66
2022-11-17T11:10:25.598Z,98758.03
2022-11-17T11:13:18.939Z,98760.09
2022-11-17T11:15:46.620Z,98750.44
2022-11-17T11:18:16.744Z,98762.66
2022-11-17T11:21:09.409Z,98752.47
2022-11-17T11:23:49.105Z,98747.91
2022-11-17T11:26:22.543Z,98747.94
2022-11-17T11:29:11.768Z,98745.06
2022-11-17T11:31:53.482Z,98743.59
2022-11-17T11:34:32.783Z,98736.00
2022-11-17T11:37:17.414Z,98743.28
2022-11-17T11:39:56.551Z,98756.94
2022-11-17T11:42:50.637Z,98767.63
2022-11-17T11:45:23.783Z,98764.78
2022-11-17T11:48:08.523Z,98768.13
2022-11-17T11:51:00.383Z,98762.09
2022-11-17T11:54:03.801Z,98773.63
2022-11-17T11:56:39.193Z,98769.03
2022-11-17T11:59:42.964Z,98772.84
2022-11-17T12:02:13.188Z,98785.69
2022-11-17T12:05:07.675Z,98778.56
2022-11-17T12:08:10.849Z,98770.41
2022-11-17T12:10:59.500Z,98776.25
2022-11-17T12:13:27.335Z,98781.47
2022-11-17T12:16:18.424Z,98788.22
2022-11-17T12:18:48.263Z,98792.75
2022-11-17T12:21:25.849Z,98787.06
2022-11-17T12:24:25.539Z,98792.44
2022-11-17T12:27:15.458Z,98799.19
2022-11-17T12:29:46.666Z,98794.50
2022-11-17T12:32:33.980Z,98790.66
2022-11-17T12:35:22.941Z,98776.41
2022-11-17T12:38:12.902Z,98792.91
2022-11-17T12:40:41.747Z,98791.34
2022-11-17T12:43:15.220Z,98792.41
2022-11-17T12:46:12.518Z,98791.50
2022-11-17T12:48:52.018Z,98791.16
2022-11-17T12:51:22.377Z,98798.09
2022-11-17T12:54:11.852Z,98803.41
2022-11-17T12:56:57.497Z,98801.91
2022-11-17T12:59:39.449Z,98807.06
2022-11-17T13:02:38.788Z,98797.78
2022-11-17T13:05:14.025Z,98795.75
2022-11-17T13:07:41.713Z,98797.69
2022-11-17T13:10:31.606Z,98794.75
2022-11-17T13:13:19.476Z,98813.53
2022-11-17T13:15:56.836Z,98816.22
2022-11-17T13:18:41.996Z,98811.28
2022-11-17T13:21:27.654Z,98828.78
2022-11-17T13:23:59.641Z,98821.53
2022-11-17T13:26:31.752Z,98826.53
2022-11-17T13:29:06.507Z,98831.50
2022-11-17T13:31:34.351Z,98843.91
2022-11-17T13:34:04.284Z,98853.94
2022-11-17T13:36:31.913Z,98846.78
2022-11-17T13:39:00.186Z,98852.91
2022-11-17T13:41:32.676Z,98862.72
2022-11-17T13:44:04.932Z,98857.88
2022-11-17T13:46:35.416Z,98854.47
2022-11-17T13:49:38.608Z,98856.78
2022-11-17T13:52:24.219Z,98864.38
2022-11-17T13:54:51.660Z,98859.13
2022-11-17T13:57:26.702Z,98863.94
2022-11-17T13:59:58.590Z,98866.06
2022-11-17T14:02:27.858Z,98853.97
2022-11-17T14:05:17.093Z,98866.44
2022-11-17T14:07:48.791Z,98868.81
2022-11-17T14:10:22.178Z,98868.66
2022-11-17T14:13:14.271Z,98879.25
2022-11-17T14:15:53.627Z,98871.81
2022-11-17T14:18:21.318Z,98879.31
2022-11-17T14:21:04.850Z,98881.19
2022-11-17T14:23:32.304Z,98881.19
2022-11-17T14:25:59.659Z,98877.91
2022-11-17T14:28:27.598Z,98879.50
2022-11-17T14:30:58.248Z,98892.25
2022-11-17T14:33:25.965Z,98890.06
2022-11-17T14:35:56.659Z,98895.91
2022-11-17T14:38:24.550Z,98901.41
2022-11-17T14:40:54.343Z,98905.19
2022-11-17T14:43:22.226Z,98904.72
2022-11-17T14:45:50.428Z,98904.38
2022-11-17T14:48:19.705Z,98903.59
2022-11-17T14:50:48.751Z,98904.84
2022-11-17T14:53:16.289Z,98899.16
2022-11-17T14:55:43.913Z,98898.06
2022-11-17T14:58:12.066Z,98905.41
2022-11-17T15:00:42.245Z,98900.72
2022-11-17T15:03:17.024Z,98901.59
2022-11-17T15:05:48.146Z,98912.47
2022-11-17T15:08:15.596Z,98910.91
2022-11-17T15:10:48.629Z,98913.88
2022-11-17T15:13:19.570Z,98919.69
2022-11-17T15:15:50.637Z,98922.50
2022-11-17T15:18:20.628Z,98917.84
2022-11-17T15:20:48.348Z,98926.88
2022-11-17T15:23:21.162Z,98927.31
2022-11-17T15:25:48.447Z,98922.75
2022-11-17T15:28:23.084Z,98927.16
2022-11-17T15:30:51.508Z,98922.28
2022-11-17T15:33:18.826Z,98922.78
2022-11-17T15:35:46.326Z,98921.34
2022-11-17T15:38:13.693Z,98927.38
2022-11-17T15:40:41.059Z,98915.00
2022-11-17T15:43:08.363Z,98923.06
2022-11-17T15:45:35.793Z,98930.25
2022-11-17T15:48:03.405Z,98932.19
2022-11-17T15:50:34.058Z,98936.88
2022-11-17T15:53:07.392Z,98942.31
2022-11-17T15:55:40.644Z,98952.47
2022-11-17T15:58:07.911Z,98958.25
2022-11-17T16:00:35.484Z,98959.09
2022-11-17T16:03:06.770Z,98958.50
2022-11-17T16:05:37.190Z,98970.91
2022-11-17T16:08:08.053Z,98969.44
2022-11-17T16:10:40.705Z,98972.88
2022-11-17T16:13:11.437Z,98975.06
2022-11-17T16:15:53.369Z,98977.78
2022-11-17T16:18:28.468Z,98968.66
2022-11-17T16:21:41.426Z,98959.97
2022-11-17T16:24:19.789Z,98967.41
2022-11-17T16:27:00.113Z,98970.44
2022-11-17T16:32:30.989Z,98970.16
2022-11-17T16:35:04.562Z,98967.16
2022-11-17T16:37:40.405Z,98969.03
2022-11-17T16:40:14.044Z,98982.19
2022-11-17T16:42:47.210Z,98974.28
2022-11-17T16:45:23.538Z,98976.16
2022-11-17T16:48:15.248Z,98985.59
2022-11-17T16:50:52.574Z,98978.75
2022-11-17T16:53:32.751Z,98986.91
2022-11-17T16:56:14.061Z,98982.69
2022-11-17T16:58:53.918Z,98980.31
2022-11-17T17:01:26.591Z,98987.72
2022-11-17T17:04:09.108Z,98993.31
2022-11-17T17:06:52.580Z,98995.94
2022-11-17T17:09:40.717Z,98993.63
2022-11-17T17:12:23.064Z,98984.13
2022-11-17T17:15:00.175Z,98995.22
2022-11-17T17:20:36.788Z,99000.72
2022-11-17T17:29:12.292Z,99007.75
2022-11-17T17:31:52.134Z,99008.75
2022-11-17T17:34:32.906Z,99009.81
2022-11-17T17:37:24.246Z,99009.69
2022-11-17T17:40:02.373Z,99011.41
2022-11-17T17:42:46.005Z,99012.41
2022-11-17T17:45:20.257Z,99019.81
2022-11-17T17:48:00.960Z,99014.94
2022-11-17T17:50:35.675Z,99023.88
2022-11-17T17:53:13.192Z,99027.63
2022-11-17T17:55:54.050Z,99043.03
2022-11-17T17:58:33.157Z,99036.81
2022-11-17T18:01:14.984Z,99041.84
2022-11-17T18:03:50.261Z,99046.91
2022-11-17T18:06:26.897Z,99046.81
2022-11-17T18:09:04.095Z,99042.06
2022-11-17T18:11:37.823Z,99050.34
2022-11-17T18:14:11.271Z,99054.09
2022-11-17T18:16:42.678Z,99054.78
2022-11-17T18:19:14.621Z,99060.84
2022-11-17T18:21:46.095Z,99063.13
2022-11-17T18:24:17.519Z,99057.88
2022-11-17T18:26:47.968Z,99054.88
2022-11-17T18:29:23.565Z,99060.84
2022-11-17T18:31:54.006Z,99063.31
2022-11-17T18:34:25.231Z,99058.06
2022-11-17T18:36:54.635Z,99066.75
2022-11-17T18:39:24.813Z,99063.31
2022-11-17T18:41:55.515Z,99061.44
2022-11-17T18:44:26.627Z,99069.44
2022-11-17T18:46:57.071Z,99062.81
2022-11-17T18:49:33.075Z,99059.84
2022-11-17T18:52:00.542Z,99062.91
2022-11-17T18:54:30.852Z,99063.63
2022-11-17T18:57:01.543Z,99066.56
2022-11-17T18:59:32.454Z,99062.59
2022-11-17T19:02:05.898Z,99057.06
2022-11-17T19:04:33.252Z,99055.38
2022-11-17T19:07:06.011Z,99053.31
2022-11-17T19:09:33.437Z,99051.53
2022-11-17T19:12:00.761Z,99066.34
2022-11-17T19:14:31.287Z,99069.31
2022-11-17T19:16:58.562Z,99070.50
2022-11-17T19:19:29.764Z,99078.50
2022-11-17T19:22:00.212Z,99088.47
2022-11-17T19:24:30.756Z,99085.03
2022-11-17T19:27:03.582Z,99088.09
2022-11-17T19:29:34.155Z,99087.59
2022-11-17T19:32:04.030Z,99077.66
2022-11-17T19:34:31.303Z,99077.94
2022-11-17T19:36:58.625Z,99082.41
2022-11-17T19:39:26.346Z,99088.41
2022-11-17T19:41:53.706Z,99079.47
2022-11-17T19:44:24.478Z,99079.34
2022-11-17T19:46:57.406Z,99075.56
2022-11-17T19:49:25.150Z,99068.44
2022-11-17T19:51:52.939Z,99061.84
2022-11-17T19:54:23.242Z,99052.38
2022-11-17T19:56:52.643Z,99056.72
2022-11-17T19:59:33.001Z,99064.88
2022-11-17T20:02:03.898Z,99060.84
2022-11-17T20:04:37.043Z,99058.69
2022-11-17T20:07:04.574Z,99066.19
2022-11-17T20:09:35.306Z,99072.25
2022-11-17T20:12:06.408Z,99073.28
2022-11-17T20:14:40.200Z,99069.56
2022-11-17T20:17:16.449Z,99069.28
2022-11-17T20:19:47.324Z,99072.16
2022-11-17T20:22:17.716Z,99072.31
2022-11-17T20:24:50.766Z,99069.28
2022-11-17T20:27:18.270Z,99078.59
2022-11-17T20:29:57.913Z,99077.50
2022-11-17T20:32:33.923Z,99068.34
2022-11-17T20:35:05.163Z,99065.28
2022-11-17T20:37:35.153Z,99073.69
2022-11-17T20:40:02.738Z,99075.94
2022-11-17T20:42:36.555Z,99070.59
2022-11-17T20:45:07.897Z,99075.50
2022-11-17T20:47:36.177Z,99084.22
2022-11-17T20:50:11.932Z,99079.00
2022-11-17T20:52:45.322Z,99076.06
2022-11-17T20:55:25.222Z,99074.47
2022-11-17T20:58:02.314Z,99072.03
2022-11-17T21:00:40.520Z,99069.81
2022-11-17T21:03:17.187Z,99079.16
2022-11-17T21:05:58.365Z,99072.97
2022-11-17T21:08:36.155Z,99071.75
2022-11-17T21:11:10.131Z,99078.44
2022-11-17T21:13:40.834Z,99073.91
2022-11-17T21:16:11.624Z,99079.34
2022-11-17T21:18:53.322Z,99076.13
2022-11-17T21:21:34.841Z,99079.81
2022-11-17T21:24:02.287Z,99077.22
2022-11-17T21:26:31.744Z,99075.63
2022-11-17T21:29:06.968Z,99077.78
2022-11-17T21:31:35.439Z,99079.78
2022-11-17T21:34:24.854Z,99086.97
2022-11-17T21:36:53.632Z,99082.09
2022-11-17T21:39:24.070Z,99081.31
2022-11-17T21:41:57.068Z,99088.00
2022-11-17T21:44:32.019Z,99093.94
2022-11-17T21:46:59.926Z,99097.53
2022-11-17T21:49:27.490Z,99101.84
2022-11-17T21:51:58.287Z,99091.59
2022-11-17T21:54:28.345Z,99092.53
2022-11-17T21:56:55.719Z,99098.16
2022-11-17T21:59:23.016Z,99109.88
2022-11-17T22:01:50.915Z,99102.63
2022-11-17T22:04:18.222Z,99112.13
2022-11-17T22:06:51.304Z,99130.78
2022-11-17T22:09:21.882Z,99128.38
2022-11-17T22:11:49.239Z,99132.38
2022-11-17T22:14:18.495Z,99131.97
2022-11-17T22:16:47.859Z,99134.91
2022-11-17T22:19:17.049Z,99145.47
2022-11-17T22:21:46.952Z,99137.78
2022-11-17T22:24:18.033Z,99141.75
2022-11-17T22:26:45.825Z,99144.09
2022-11-17T22:29:16.417Z,99149.41
2022-11-17T22:31:48.472Z,99149.25
2022-11-17T22:34:16.760Z,99141.69
2022-11-17T22:36:44.561Z,99137.09
2022-11-17T22:39:12.672Z,99144.78
2022-11-17T22:41:43.483Z,99144.31
2022-11-17T22:44:15.340Z,99145.47
2022-11-17T22:46:45.547Z,99136.28
2022-11-17T22:49:16.402Z,99129.47
2022-11-17T22:51:43.760Z,99129.59
2022-11-17T22:54:13.662Z,99118.19
2022-11-17T22:56:42.478Z,99122.88
2022-11-17T22:59:13.396Z,99122.13
2022-11-17T23:01:41.106Z,99119.59
2022-11-17T23:04:08.508Z,99114.75
2022-11-17T23:06:39.416Z,99117.19
2022-11-17T23:09:09.504Z,99123.84
2022-11-17T23:11:38.507Z,99120.44
2022-11-17T23:14:09.299Z,99113.53
2022-11-17T23:16:37.832Z,99124.13
2022-11-17T23:19:12.637Z,99114.53
2022-11-17T23:21:40.262Z,99112.31
2022-11-17T23:24:10.514Z,99114.72
2022-11-17T23:26:41.556Z,99113.91
2022-11-17T23:29:09.340Z,99110.09
2022-11-17T23:31:42.020Z,99109.94
2022-11-17T23:34:10.357Z,99112.78
2022-11-17T23:36:43.553Z,99110.25
2022-11-17T23:39:17.626Z,99112.88
2022-11-17T23:41:48.189Z,99121.00
2022-11-17T23:44:16.323Z,99110.84
2022-11-17T23:46:50.297Z,99107.97
2022-11-17T23:49:20.375Z,99120.38
2022-11-17T23:51:50.176Z,99118.25
2022-11-17T23:54:17.655Z,99116.59
2022-11-17T23:56:44.930Z,99124.53
2022-11-17T23:59:12.319Z,99119.53
